Time;durP1;ratioP1;P1;durP2;ratioP2;P2;SDS_P1;SDS_P2;PMS_P1;PMS_P2;Temp;Humidity;BMP_temperature;BMP_pressure;BME280_temperature;BME280_humidity;BME280_pressure;Samples;Min_cycle;Max_cycle;Signal;HPM_P1;HPM_P2
2022/08/13 00:02:16;;;;;;;5.47;3.83;;;22.50;33.80;;;;;;4993096;28;20418;-40
2022/08/13 00:05:05;;;;;;;4.90;3.63;;;22.50;33.80;;;;;;4992701;28;20494;-40
2022/08/13 00:07:30;;;;;;;4.23;3.67;;;22.50;33.70;;;;;;4992134;28;20434;-40
2022/08/13 00:09:58;;;;;;;5.50;3.93;;;22.50;33.80;;;;;;4992675;28;20403;-39
2022/08/13 00:15:14;;;;;;;4.30;3.70;;;22.50;34.10;;;;;;4992936;28;20410;-41
2022/08/13 00:17:45;;;;;;;5.10;4.03;;;22.40;34.50;;;;;;4992456;28;20518;-42
2022/08/13 00:20:12;;;;;;;4.53;4.10;;;22.30;34.50;;;;;;4994452;28;20386;-42
2022/08/13 00:22:38;;;;;;;4.60;4.20;;;22.20;34.10;;;;;;4996656;28;20508;-42
2022/08/13 00:25:09;;;;;;;4.47;4.07;;;22.20;34.20;;;;;;4996651;28;20426;-42
2022/08/13 00:27:35;;;;;;;4.73;3.50;;;22.20;34.10;;;;;;5025436;22;20492;-42
2022/08/13 00:30:05;;;;;;;7.90;5.00;;;22.20;34.20;;;;;;5027949;28;20739;-41
2022/08/13 00:32:31;;;;;;;3.90;3.50;;;22.20;34.20;;;;;;5035729;28;20431;-41
2022/08/13 00:34:57;;;;;;;5.60;4.07;;;22.20;34.10;;;;;;5036040;28;20462;-42
2022/08/13 00:37:27;;;;;;;4.73;3.60;;;22.20;34.30;;;;;;5035392;28;20952;-42
2022/08/13 00:39:54;;;;;;;4.73;3.80;;;22.20;34.20;;;;;;5035748;28;20432;-41
2022/08/13 00:42:23;;;;;;;4.80;3.53;;;22.20;34.50;;;;;;5035642;28;20436;-42
2022/08/13 00:44:50;;;;;;;4.77;3.13;;;22.10;34.50;;;;;;5035468;28;20478;-42
2022/08/13 00:50:01;;;;;;;8.53;3.43;;;22.10;34.60;;;;;;5035826;28;20424;-42
2022/08/13 00:52:30;;;;;;;4.03;3.17;;;22.00;34.50;;;;;;5035542;28;20400;-42
2022/08/13 00:55:09;;;;;;;4.50;3.83;;;22.00;34.60;;;;;;5035530;28;20772;-41
2022/08/13 00:57:36;;;;;;;4.23;3.70;;;22.00;34.80;;;;;;5035173;28;20441;-42
2022/08/13 01:00:13;;;;;;;5.03;3.90;;;22.00;34.90;;;;;;5035283;28;20899;-42
2022/08/13 01:02:44;;;;;;;6.83;4.17;;;21.80;35.20;;;;;;5035253;28;20979;-42
2022/08/13 01:05:10;;;;;;;4.00;3.47;;;21.80;35.00;;;;;;5035243;28;20392;-41
2022/08/13 01:07:40;;;;;;;3.83;3.43;;;21.70;35.00;;;;;;5035000;28;20940;-42
2022/08/13 01:10:07;;;;;;;3.57;3.17;;;21.70;35.20;;;;;;5035120;28;20450;-42
2022/08/13 01:12:35;;;;;;;4.30;3.90;;;21.60;35.00;;;;;;5035064;28;20392;-42
2022/08/13 01:15:02;;;;;;;4.67;3.77;;;21.60;35.00;;;;;;5035137;28;20407;-42
2022/08/13 01:17:28;;;;;;;5.13;3.83;;;21.60;35.10;;;;;;5034866;28;20436;-42
2022/08/13 01:19:56;;;;;;;5.80;4.00;;;21.50;35.40;;;;;;5035000;28;20405;-42
2022/08/13 01:22:24;;;;;;;3.97;3.57;;;21.50;35.60;;;;;;5034880;28;20392;-42
2022/08/13 01:24:50;;;;;;;5.93;3.70;;;21.40;35.40;;;;;;5034700;28;20559;-42
2022/08/13 01:27:18;;;;;;;5.13;3.77;;;21.40;35.40;;;;;;5034598;28;20544;-42
2022/08/13 01:29:47;;;;;;;4.00;2.97;;;21.40;35.40;;;;;;5034935;28;20408;-42
2022/08/13 01:32:15;;;;;;;4.50;3.77;;;21.40;35.40;;;;;;5034351;28;20396;-41
2022/08/13 01:34:43;;;;;;;3.77;3.00;;;21.40;35.50;;;;;;5034666;28;20447;-42
2022/08/13 01:37:11;;;;;;;4.83;3.60;;;21.40;35.50;;;;;;5034260;28;20428;-42
2022/08/13 01:39:38;;;;;;;4.67;3.60;;;21.40;35.50;;;;;;5034656;28;20503;-41
2022/08/13 01:42:06;;;;;;;4.97;4.10;;;21.40;35.30;;;;;;5034517;28;20412;-42
2022/08/13 01:44:33;;;;;;;3.73;3.33;;;21.30;35.60;;;;;;5034542;28;20453;-42
2022/08/13 01:52:33;;;;;;;4.37;3.83;;;21.20;35.70;;;;;;5034711;28;20481;-42
2022/08/13 01:55:01;;;;;;;4.47;4.07;;;21.20;35.80;;;;;;5034274;28;20463;-42
2022/08/13 01:57:27;;;;;;;5.90;4.17;;;21.20;35.60;;;;;;5033951;28;20447;-41
2022/08/13 01:59:53;;;;;;;4.13;3.73;;;21.20;35.60;;;;;;5034208;28;20409;-42
2022/08/13 02:02:23;;;;;;;10.80;4.10;;;21.20;35.70;;;;;;5034185;28;20753;-42
2022/08/13 02:04:49;;;;;;;4.60;3.40;;;21.20;35.90;;;;;;5034421;28;20440;-42
2022/08/13 02:07:16;;;;;;;6.03;3.60;;;21.10;35.90;;;;;;5033933;28;20928;-42
2022/08/13 02:09:43;;;;;;;8.63;3.97;;;21.10;35.90;;;;;;5034346;28;20185;-42
2022/08/13 02:12:13;;;;;;;5.93;3.87;;;21.10;35.90;;;;;;5034054;28;20444;-42
2022/08/13 02:14:42;;;;;;;4.47;3.77;;;21.00;36.10;;;;;;5034177;28;20516;-42
2022/08/13 02:17:27;;;;;;;4.50;3.90;;;21.00;36.20;;;;;;5033849;28;20590;-42
2022/08/13 02:19:56;;;;;;;4.60;3.60;;;21.00;36.70;;;;;;5034224;28;20397;-41
2022/08/13 02:22:24;;;;;;;4.13;3.27;;;21.00;36.10;;;;;;5033874;28;20491;-42
2022/08/13 02:24:56;;;;;;;3.47;3.17;;;21.00;36.20;;;;;;5033703;28;20440;-42
2022/08/13 02:27:25;;;;;;;3.57;3.27;;;20.90;36.40;;;;;;5033438;28;20448;-42
2022/08/13 02:29:53;;;;;;;5.27;4.27;;;20.90;36.30;;;;;;5033799;28;20495;-42
2022/08/13 02:32:20;;;;;;;3.78;3.30;;;20.80;36.40;;;;;;5033719;28;20424;-41
2022/08/13 02:34:50;;;;;;;4.40;3.73;;;20.80;36.50;;;;;;5033679;28;20209;-42
2022/08/13 02:37:24;;;;;;;4.10;3.33;;;20.80;36.90;;;;;;5033571;28;20417;-42
2022/08/13 02:39:51;;;;;;;4.20;3.57;;;20.80;36.80;;;;;;5033709;28;20508;-42
2022/08/13 02:42:18;;;;;;;7.68;3.28;;;20.70;36.60;;;;;;5032536;28;20487;-42
2022/08/13 02:44:47;;;;;;;5.05;3.67;;;20.70;36.70;;;;;;5033560;28;20244;-42
2022/08/13 02:47:15;;;;;;;4.35;3.92;;;20.70;36.90;;;;;;5033217;28;20268;-41
2022/08/13 02:49:41;;;;;;;4.10;3.70;;;20.70;36.90;;;;;;5033439;28;20538;-42
2022/08/13 02:52:10;;;;;;;4.28;3.65;;;20.70;36.90;;;;;;5033448;28;20413;-42
2022/08/13 02:54:42;;;;;;;4.32;3.70;;;20.70;36.90;;;;;;5033248;28;20177;-42
2022/08/13 02:57:10;;;;;;;5.37;4.13;;;20.70;36.90;;;;;;5032841;28;20661;-42
2022/08/13 02:59:36;;;;;;;4.40;4.00;;;20.70;36.70;;;;;;5033321;28;20436;-42
2022/08/13 03:02:04;;;;;;;3.88;3.20;;;20.70;36.80;;;;;;5033098;28;20208;-42
2022/08/13 03:04:30;;;;;;;4.32;3.40;;;20.60;36.80;;;;;;5032874;28;20877;-41
2022/08/13 03:06:57;;;;;;;4.25;3.45;;;20.60;36.60;;;;;;5032948;28;20197;-42
2022/08/13 03:09:23;;;;;;;4.60;3.50;;;20.70;36.80;;;;;;5033197;28;20186;-42
2022/08/13 03:11:50;;;;;;;5.63;2.88;;;20.60;36.70;;;;;;5033013;28;20182;-43
2022/08/13 03:14:17;;;;;;;4.67;3.47;;;20.60;37.00;;;;;;5032803;28;20166;-42
2022/08/13 03:16:44;;;;;;;4.45;3.35;;;20.60;36.90;;;;;;5032382;28;20437;-42
2022/08/13 03:19:09;;;;;;;5.05;2.70;;;20.60;37.20;;;;;;5032668;28;20178;-43
2022/08/13 03:21:42;;;;;;;5.03;4.03;;;20.50;37.30;;;;;;5032997;28;20257;-43
2022/08/13 03:24:17;;;;;;;6.05;3.72;;;20.50;37.20;;;;;;5032783;28;20229;-43
2022/08/13 03:26:44;;;;;;;4.43;3.50;;;20.50;37.30;;;;;;5032341;28;20243;-42
2022/08/13 03:29:11;;;;;;;3.50;2.77;;;20.40;37.20;;;;;;5032475;28;20587;-42
2022/08/13 03:31:37;;;;;;;4.10;3.70;;;20.40;37.20;;;;;;5032450;28;20780;-43
2022/08/13 03:34:04;;;;;;;4.35;3.78;;;20.40;37.20;;;;;;5032524;28;20954;-43
2022/08/13 03:36:31;;;;;;;4.60;3.47;;;20.40;37.20;;;;;;5032451;28;20205;-42
2022/08/13 03:38:59;;;;;;;4.03;3.53;;;20.40;37.50;;;;;;5032447;28;20191;-43
2022/08/13 03:41:26;;;;;;;4.28;3.72;;;20.30;37.70;;;;;;5032427;28;20253;-42
2022/08/13 03:43:53;;;;;;;5.22;3.88;;;20.30;37.60;;;;;;5032295;28;20205;-42
2022/08/13 03:46:26;;;;;;;4.97;4.28;;;20.30;37.60;;;;;;5031961;28;20653;-42
2022/08/13 03:48:52;;;;;;;5.63;3.88;;;20.30;37.70;;;;;;5032443;28;20182;-42
2022/08/13 03:51:22;;;;;;;4.40;3.63;;;20.30;37.70;;;;;;5032358;28;20261;-43
2022/08/13 03:53:49;;;;;;;3.42;3.00;;;20.30;37.80;;;;;;5032091;28;20389;-43
2022/08/13 03:56:16;;;;;;;4.70;3.83;;;20.30;37.70;;;;;;5031950;28;20174;-43
2022/08/13 03:58:44;;;;;;;4.85;3.60;;;20.30;37.90;;;;;;5032033;28;20188;-43
2022/08/13 04:01:11;;;;;;;5.97;4.38;;;20.30;37.90;;;;;;5032323;28;20217;-43
2022/08/13 04:03:40;;;;;;;4.93;4.35;;;20.30;37.70;;;;;;5031985;28;20547;-43
2022/08/13 04:06:19;;;;;;;4.65;3.80;;;20.30;37.90;;;;;;5031856;28;20228;-42
2022/08/13 04:08:46;;;;;;;4.35;3.45;;;20.30;38.50;;;;;;5032370;28;20514;-42
2022/08/13 04:11:17;;;;;;;4.75;3.30;;;20.30;37.80;;;;;;5031924;28;20178;-42
2022/08/13 04:13:43;;;;;;;5.28;4.30;;;20.30;38.10;;;;;;5032265;28;20189;-43
2022/08/13 04:16:14;;;;;;;5.53;4.17;;;20.20;38.10;;;;;;5031701;28;20186;-43
2022/08/13 04:18:42;;;;;;;3.90;3.50;;;20.30;37.90;;;;;;5032005;28;20393;-42
2022/08/13 04:21:11;;;;;;;4.63;4.13;;;20.30;38.70;;;;;;5032215;28;20509;-44
2022/08/13 04:23:41;;;;;;;13.05;3.55;;;20.40;38.30;;;;;;5031876;28;20546;-44
2022/08/13 04:26:08;;;;;;;4.10;3.70;;;20.30;38.20;;;;;;5031646;28;20707;-45
2022/08/13 04:28:38;;;;;;;5.63;4.20;;;20.40;38.40;;;;;;5032005;28;20186;-43
2022/08/13 04:31:05;;;;;;;4.78;4.03;;;20.40;38.70;;;;;;5031878;28;20668;-44
2022/08/13 04:33:31;;;;;;;4.47;3.83;;;20.40;38.80;;;;;;5031741;28;20190;-44
2022/08/13 04:35:57;;;;;;;4.37;3.47;;;20.50;38.70;;;;;;5031574;28;20178;-44
2022/08/13 04:38:22;;;;;;;5.10;3.53;;;20.50;38.70;;;;;;5031554;28;20421;-43
2022/08/13 04:40:48;;;;;;;4.50;4.00;;;20.60;38.50;;;;;;5031834;28;20166;-43
2022/08/13 04:43:14;;;;;;;4.23;3.83;;;20.60;38.40;;;;;;5031632;28;20436;-43
2022/08/13 04:45:42;;;;;;;4.53;4.10;;;20.60;38.40;;;;;;5031430;28;20407;-44
2022/08/13 04:48:15;;;;;;;4.00;3.40;;;20.70;38.60;;;;;;5031579;28;20428;-44
2022/08/13 04:50:46;;;;;;;4.82;4.22;;;20.70;38.40;;;;;;5031665;28;20163;-43
2022/08/13 04:53:33;;;;;;;5.73;4.60;;;20.80;38.80;;;;;;5031606;28;20178;-44
2022/08/13 04:56:01;;;;;;;5.00;3.47;;;20.80;38.90;;;;;;5031514;28;20408;-43
2022/08/13 04:58:33;;;;;;;6.13;4.55;;;20.80;38.80;;;;;;5031722;28;20516;-43
2022/08/13 05:00:59;;;;;;;3.55;3.20;;;20.80;38.90;;;;;;5031909;28;20167;-43
2022/08/13 05:03:25;;;;;;;4.13;3.50;;;20.80;38.70;;;;;;5031452;28;20281;-43
2022/08/13 05:05:52;;;;;;;4.87;3.80;;;20.90;39.00;;;;;;5032550;28;20487;-43
2022/08/13 05:08:19;;;;;;;3.80;3.40;;;20.90;39.00;;;;;;5035361;28;20268;-42
2022/08/13 05:10:48;;;;;;;4.43;3.80;;;21.00;38.80;;;;;;5035204;28;20166;-42
2022/08/13 05:13:32;;;;;;;4.27;3.57;;;21.00;38.80;;;;;;5035157;28;20405;-43
2022/08/13 05:16:01;;;;;;;5.68;3.75;;;21.10;38.90;;;;;;5034794;28;20876;-42
2022/08/13 05:18:29;;;;;;;4.70;3.65;;;21.10;39.00;;;;;;5034998;28;20194;-43
2022/08/13 05:20:59;;;;;;;6.50;4.13;;;21.20;38.90;;;;;;5034902;28;20182;-42
2022/08/13 05:23:24;;;;;;;5.87;3.93;;;21.20;38.60;;;;;;5034803;28;20975;-44
2022/08/13 05:25:51;;;;;;;5.20;4.70;;;21.40;38.60;;;;;;5034665;28;20455;-42
2022/08/13 05:28:17;;;;;;;3.60;3.17;;;21.40;38.50;;;;;;5034598;28;20577;-44
2022/08/13 05:30:46;;;;;;;4.53;4.10;;;21.50;38.60;;;;;;5035000;28;20429;-42
2022/08/13 05:33:21;;;;;;;5.00;4.03;;;21.50;38.40;;;;;;5034733;28;20909;-43
2022/08/13 05:35:49;;;;;;;7.03;4.27;;;21.60;38.30;;;;;;5034789;28;20388;-43
2022/08/13 05:38:16;;;;;;;5.03;4.17;;;21.70;38.20;;;;;;5034527;28;20429;-42
2022/08/13 05:40:45;;;;;;;4.27;3.87;;;21.80;38.00;;;;;;5035213;28;20420;-42
2022/08/13 05:43:15;;;;;;;6.97;4.70;;;21.80;38.00;;;;;;5034991;28;20550;-42
2022/08/13 05:45:42;;;;;;;5.77;4.37;;;22.90;38.30;;;;;;5034641;28;20412;-42
2022/08/13 05:48:08;;;;;;;5.13;4.23;;;21.90;37.90;;;;;;5034630;28;20471;-42
2022/08/13 05:50:34;;;;;;;4.20;3.80;;;21.90;37.90;;;;;;5034859;28;20412;-41
2022/08/13 05:53:09;;;;;;;5.90;4.67;;;22.00;37.80;;;;;;5034765;28;20428;-42
2022/08/13 05:55:38;;;;;;;5.07;4.10;;;22.00;37.70;;;;;;5034734;28;20473;-43
2022/08/13 05:58:10;;;;;;;4.53;4.13;;;22.00;37.60;;;;;;5034908;28;20455;-43
2022/08/13 06:03:36;;;;;;;4.23;3.73;;;22.10;37.60;;;;;;5000547;28;20456;-41
2022/08/13 06:06:06;;;;;;;5.67;4.60;;;22.20;37.70;;;;;;5033952;28;20436;-43
2022/08/13 06:08:35;;;;;;;4.97;4.20;;;22.20;37.90;;;;;;5034128;28;20484;-43
2022/08/13 06:11:08;;;;;;;5.57;4.40;;;22.20;37.70;;;;;;5033954;28;20413;-43
2022/08/13 06:13:38;;;;;;;5.57;4.80;;;22.30;37.80;;;;;;5034112;28;20487;-43
2022/08/13 06:16:06;;;;;;;6.60;4.70;;;22.30;37.90;;;;;;5033926;28;20385;-43
2022/08/13 06:18:35;;;;;;;5.60;4.30;;;22.30;38.00;;;;;;5033948;28;20413;-43
2022/08/13 06:21:12;;;;;;;8.43;4.97;;;22.40;37.80;;;;;;5033931;28;20796;-43
2022/08/13 06:23:40;;;;;;;7.53;4.40;;;22.40;37.70;;;;;;5033764;28;20452;-43
2022/08/13 06:26:10;;;;;;;4.53;4.10;;;22.50;37.70;;;;;;5033373;28;20910;-43
2022/08/13 06:28:36;;;;;;;6.70;5.13;;;22.50;37.60;;;;;;5033608;28;20912;-43
2022/08/13 06:31:07;;;;;;;7.00;5.20;;;22.50;37.40;;;;;;5033632;28;20916;-42
2022/08/13 06:33:35;;;;;;;4.77;3.90;;;22.50;37.50;;;;;;5033920;28;20409;-43
2022/08/13 06:36:10;;;;;;;5.10;4.13;;;22.60;37.30;;;;;;5033498;28;20487;-43
2022/08/13 06:38:41;;;;;;;5.80;3.93;;;22.60;37.20;;;;;;5033550;28;20400;-42
2022/08/13 06:41:10;;;;;;;5.97;4.37;;;22.60;37.10;;;;;;5033384;28;20876;-43
2022/08/13 06:43:42;;;;;;;7.80;4.50;;;22.60;37.10;;;;;;5033595;28;20468;-43
2022/08/13 06:46:09;;;;;;;5.10;4.43;;;22.70;37.30;;;;;;5033215;28;20408;-43
2022/08/13 06:48:35;;;;;;;7.40;4.83;;;22.70;37.50;;;;;;5033423;28;20859;-43
2022/08/13 06:51:06;;;;;;;5.67;4.43;;;22.70;37.30;;;;;;5033319;28;20496;-43
2022/08/13 06:53:35;;;;;;;4.80;4.20;;;22.70;37.20;;;;;;5033498;28;20405;-43
2022/08/13 06:56:03;;;;;;;6.03;3.97;;;22.70;37.30;;;;;;5033058;28;20474;-43
2022/08/13 06:58:30;;;;;;;4.33;3.93;;;22.80;37.10;;;;;;5033251;28;20765;-42
2022/08/13 07:00:58;;;;;;;4.87;4.20;;;22.80;37.10;;;;;;5033113;28;20409;-43
2022/08/13 07:03:29;;;;;;;5.97;4.40;;;22.80;37.00;;;;;;5033026;28;20491;-43
2022/08/13 07:05:56;;;;;;;8.03;4.97;;;22.80;37.00;;;;;;5032870;28;20455;-42
2022/08/13 07:08:28;;;;;;;4.90;4.13;;;22.90;36.90;;;;;;5032736;28;20424;-43
2022/08/13 07:13:43;;;;;;;6.10;4.17;;;22.90;36.80;;;;;;5033241;28;20400;-43
2022/08/13 07:16:17;;;;;;;4.90;4.40;;;23.00;36.80;;;;;;5032428;28;20427;-43
2022/08/13 07:18:46;;;;;;;5.27;4.10;;;23.00;36.80;;;;;;5032910;28;20458;-43
2022/08/13 07:21:13;;;;;;;6.30;4.40;;;23.10;36.80;;;;;;5032677;28;20486;-43
2022/08/13 07:23:41;;;;;;;6.60;4.53;;;23.10;36.80;;;;;;5032565;28;20480;-44
2022/08/13 07:26:12;;;;;;;5.37;4.10;;;23.10;36.80;;;;;;5032186;28;20868;-42
2022/08/13 07:28:40;;;;;;;4.47;4.07;;;23.10;36.90;;;;;;5032237;28;20789;-43
2022/08/13 07:31:08;;;;;;;6.80;4.40;;;23.20;37.00;;;;;;5032517;28;20416;-43
2022/08/13 07:33:35;;;;;;;5.90;5.30;;;23.10;36.80;;;;;;5032541;28;20523;-42
2022/08/13 07:36:06;;;;;;;7.67;4.23;;;23.20;36.90;;;;;;5032217;28;20427;-42
2022/08/13 07:38:33;;;;;;;7.70;4.30;;;23.20;37.00;;;;;;5032469;28;20551;-42
2022/08/13 07:41:02;;;;;;;6.33;4.40;;;23.20;36.70;;;;;;5032394;28;20916;-43
2022/08/13 07:43:32;;;;;;;5.33;4.70;;;23.30;36.80;;;;;;5014568;28;20444;-43
2022/08/13 07:46:10;;;;;;;5.30;4.17;;;23.30;36.80;;;;;;5032306;28;20404;-42
2022/08/13 07:48:43;;;;;;;6.40;5.10;;;23.30;36.90;;;;;;5032292;28;20476;-43
2022/08/13 07:51:18;;;;;;;5.40;4.90;;;23.30;36.80;;;;;;5032393;28;20414;-42
2022/08/13 07:53:48;;;;;;;7.63;4.73;;;23.30;36.70;;;;;;5032168;28;20435;-42
2022/08/13 07:56:25;;;;;;;8.53;5.27;;;23.40;36.70;;;;;;5031866;28;20483;-43
2022/08/13 07:58:55;;;;;;;5.60;4.43;;;23.40;36.80;;;;;;5032416;28;20393;-42
2022/08/13 08:01:20;;;;;;;4.97;3.93;;;23.40;36.70;;;;;;5032374;28;20404;-43
2022/08/13 08:03:48;;;;;;;6.10;4.90;;;23.50;36.80;;;;;;5032218;28;20509;-44
2022/08/13 08:06:16;;;;;;;5.70;5.10;;;23.60;36.60;;;;;;5031883;28;20580;-43
2022/08/13 08:08:42;;;;;;;8.07;5.43;;;23.60;36.60;;;;;;5031884;28;20405;-44
2022/08/13 08:12:35;;;;;;;6.50;4.83;;;23.70;36.60;;;;;;5032212;28;20401;-44
2022/08/13 08:14:00;;;;;;;4.80;4.37;;;23.80;36.30;;;;;;5031506;28;20482;-43
2022/08/13 08:16:30;;;;;;;4.40;4.00;;;23.80;36.40;;;;;;5031748;28;20428;-43
2022/08/13 08:18:58;;;;;;;6.50;5.10;;;23.80;36.30;;;;;;5031924;28;20408;-44
2022/08/13 08:21:25;;;;;;;5.87;4.47;;;23.90;36.30;;;;;;5032149;28;20496;-43
2022/08/13 08:24:02;;;;;;;5.60;4.83;;;24.00;36.20;;;;;;5031752;28;20452;-43
2022/08/13 08:26:33;;;;;;;5.83;4.10;;;24.10;36.40;;;;;;5031489;28;20424;-42
2022/08/13 08:29:03;;;;;;;5.10;4.50;;;24.20;36.20;;;;;;5031899;28;20923;-42
2022/08/13 08:31:30;;;;;;;7.57;5.10;;;24.20;35.90;;;;;;5031728;28;20436;-43
2022/08/13 08:33:57;;;;;;;5.47;4.10;;;24.30;35.90;;;;;;5031660;28;20409;-42
2022/08/13 08:36:27;;;;;;;4.70;4.20;;;24.40;35.70;;;;;;5031375;28;20417;-41
2022/08/13 08:44:32;;;;;;;6.93;5.30;;;24.50;35.60;;;;;;5035794;28;20498;-42
2022/08/13 08:46:59;;;;;;;6.50;5.30;;;24.50;35.70;;;;;;5035565;28;20421;-43
2022/08/13 08:49:26;;;;;;;4.80;3.73;;;24.50;35.50;;;;;;5035620;28;20931;-42
2022/08/13 08:51:53;;;;;;;5.67;4.80;;;24.50;35.90;;;;;;5035424;28;20423;-43
2022/08/13 08:54:22;;;;;;;5.83;4.30;;;24.60;35.90;;;;;;5035491;28;20447;-44
2022/08/13 08:56:51;;;;;;;10.00;5.10;;;24.60;35.90;;;;;;5035410;28;20440;-42
2022/08/13 08:59:17;;;;;;;6.30;5.33;;;24.60;35.80;;;;;;5017720;28;20421;-42
2022/08/13 09:01:44;;;;;;;6.70;4.97;;;24.60;35.80;;;;;;5035240;28;20412;-43
2022/08/13 09:04:12;;;;;;;7.47;5.20;;;24.60;36.00;;;;;;5035321;28;20445;-41
2022/08/13 09:06:38;;;;;;;5.23;3.87;;;24.60;36.00;;;;;;5034997;28;20511;-43
2022/08/13 09:09:07;;;;;;;4.60;4.10;;;24.60;36.00;;;;;;5035015;28;20892;-43
2022/08/13 09:11:36;;;;;;;4.80;3.90;;;24.60;36.10;;;;;;5035488;28;20413;-42
2022/08/13 09:14:07;;;;;;;6.20;4.40;;;24.70;36.20;;;;;;5035445;28;20504;-43
2022/08/13 09:16:37;;;;;;;5.23;4.00;;;24.70;36.10;;;;;;5034799;28;20935;-45
2022/08/13 09:19:03;;;;;;;7.77;5.07;;;24.80;35.90;;;;;;5034952;28;20908;-42
2022/08/13 09:21:29;;;;;;;7.63;4.37;;;24.90;35.90;;;;;;5034853;28;20413;-42
2022/08/13 09:23:55;;;;;;;7.20;5.70;;;24.90;35.90;;;;;;5034817;28;20451;-42
2022/08/13 09:26:22;;;;;;;5.37;4.40;;;25.00;36.00;;;;;;5034443;28;20212;-43
2022/08/13 09:28:56;;;;;;;5.57;4.93;;;25.10;35.90;;;;;;5035048;28;20416;-42
2022/08/13 09:31:23;;;;;;;5.53;4.40;;;25.10;36.00;;;;;;5034833;28;20455;-44
2022/08/13 09:33:52;;;;;;;5.43;4.83;;;25.20;36.00;;;;;;5034732;28;20408;-43
2022/08/13 09:36:18;;;;;;;6.30;5.17;;;25.20;36.00;;;;;;5034187;28;20489;-44
2022/08/13 09:38:45;;;;;;;5.30;4.80;;;25.40;36.00;;;;;;5034788;28;20819;-42
2022/08/13 09:41:33;;;;;;;7.87;4.70;;;25.50;35.90;;;;;;5034645;28;20955;-42
2022/08/13 09:43:59;;;;;;;7.60;5.43;;;25.60;36.00;;;;;;5034603;28;20515;-44
2022/08/13 09:46:26;;;;;;;6.63;6.03;;;25.70;36.10;;;;;;5034519;28;20521;-41
2022/08/13 09:48:52;;;;;;;10.20;5.23;;;25.80;35.90;;;;;;5034755;28;20198;-43
2022/08/13 09:51:24;;;;;;;10.97;5.87;;;26.00;36.30;;;;;;5033940;28;20488;-45
2022/08/13 09:53:51;;;;;;;6.37;5.63;;;26.10;36.80;;;;;;5034658;28;20504;-42
2022/08/13 09:56:17;;;;;;;8.73;6.03;;;26.20;36.60;;;;;;5034143;28;20408;-42
2022/08/13 09:58:49;;;;;;;6.90;5.97;;;26.30;36.20;;;;;;5034268;28;20411;-43
2022/08/13 10:01:15;;;;;;;7.00;5.93;;;26.40;36.40;;;;;;5034500;28;20470;-41
2022/08/13 10:03:42;;;;;;;8.80;5.77;;;26.40;36.30;;;;;;5034398;28;20855;-43
2022/08/13 10:06:09;;;;;;;6.80;6.20;;;26.50;36.00;;;;;;5016083;28;21002;-42
2022/08/13 10:08:35;;;;;;;8.80;7.00;;;26.50;36.20;;;;;;5034117;28;20446;-44
2022/08/13 10:11:02;;;;;;;16.33;6.17;;;26.70;36.60;;;;;;5058239;22;20572;-40
2022/08/13 10:13:28;;;;;;;7.37;5.47;;;26.70;37.10;;;;;;5026727;28;20412;-40
2022/08/13 10:15:54;;;;;;;8.20;6.30;;;26.70;37.10;;;;;;5033872;28;20491;-41
2022/08/13 10:18:20;;;;;;;7.27;6.57;;;26.80;37.10;;;;;;5034027;28;20435;-41
2022/08/13 10:20:48;;;;;;;10.30;7.47;;;26.80;37.00;;;;;;5033728;28;20951;-41
2022/08/13 10:23:16;;;;;;;11.17;7.50;;;26.90;37.20;;;;;;5033685;28;20416;-41
2022/08/13 10:25:43;;;;;;;10.80;7.60;;;26.90;37.70;;;;;;5033663;28;20396;-42
2022/08/13 10:28:21;;;;;;;8.20;6.47;;;27.00;38.60;;;;;;5033904;28;20456;-43
2022/08/13 10:30:47;;;;;;;7.57;6.77;;;27.10;38.60;;;;;;5033745;28;20460;-42
2022/08/13 10:33:15;;;;;;;9.63;6.70;;;27.10;38.50;;;;;;5033559;28;20436;-41
2022/08/13 10:35:51;;;;;;;8.07;5.60;;;27.20;38.80;;;;;;5033545;28;20900;-42
2022/08/13 10:38:19;;;;;;;6.80;5.77;;;27.30;39.00;;;;;;5033605;28;20914;-42
2022/08/13 10:40:45;;;;;;;6.67;5.97;;;27.40;39.00;;;;;;5033445;28;20427;-42
2022/08/13 10:43:11;;;;;;;7.30;6.60;;;27.50;39.00;;;;;;5033480;28;20397;-42
2022/08/13 10:45:40;;;;;;;9.00;5.40;;;27.50;38.90;;;;;;5033220;28;20776;-41
2022/08/13 10:48:11;;;;;;;11.30;6.90;;;27.60;38.80;;;;;;5033574;28;20408;-42
2022/08/13 10:50:38;;;;;;;9.40;6.73;;;27.70;38.70;;;;;;5033258;28;20512;-41
2022/08/13 10:53:04;;;;;;;8.33;7.30;;;27.80;38.50;;;;;;5033312;28;20404;-42
2022/08/13 10:55:30;;;;;;;7.43;6.50;;;27.80;38.30;;;;;;5033174;28;20435;-42
2022/08/13 10:57:56;;;;;;;9.00;6.13;;;27.80;38.30;;;;;;5033180;28;20896;-42
2022/08/13 11:00:22;;;;;;;7.13;6.43;;;27.70;38.30;;;;;;5033335;28;20598;-41
2022/08/13 11:02:49;;;;;;;8.40;7.13;;;27.80;38.30;;;;;;5032645;28;20198;-41
2022/08/13 11:05:17;;;;;;;7.57;6.87;;;27.80;38.30;;;;;;5014944;28;20463;-42
2022/08/13 11:07:45;;;;;;;8.33;6.13;;;27.80;38.50;;;;;;5032985;28;20405;-41
2022/08/13 11:10:12;;;;;;;8.57;7.40;;;27.80;38.30;;;;;;5032667;28;20480;-42
2022/08/13 11:12:38;;;;;;;8.47;7.33;;;27.80;38.10;;;;;;5015534;28;20417;-42
2022/08/13 11:15:06;;;;;;;7.90;6.77;;;27.90;38.40;;;;;;5032870;28;20431;-42
2022/08/13 11:17:35;;;;;;;7.83;7.03;;;27.90;38.20;;;;;;5032555;28;20162;-42
2022/08/13 11:20:04;;;;;;;7.73;6.83;;;27.90;38.30;;;;;;5032663;28;20444;-42
2022/08/13 11:22:30;;;;;;;8.03;6.60;;;28.00;38.60;;;;;;5032591;28;20408;-42
2022/08/13 11:24:59;;;;;;;13.73;6.93;;;28.00;38.60;;;;;;5032789;28;20448;-42
2022/08/13 11:27:25;;;;;;;9.77;6.70;;;28.00;38.40;;;;;;5032393;28;20413;-43
2022/08/13 11:29:53;;;;;;;7.70;7.00;;;28.00;38.50;;;;;;5032456;28;20428;-43
2022/08/13 11:32:20;;;;;;;9.67;8.00;;;28.00;38.30;;;;;;5014651;28;20490;-42
2022/08/13 11:34:45;;;;;;;8.63;7.67;;;28.10;38.10;;;;;;5032295;28;20491;-41
2022/08/13 11:37:11;;;;;;;8.90;7.97;;;28.10;37.60;;;;;;5032279;28;20504;-43
2022/08/13 11:39:37;;;;;;;8.73;7.87;;;28.10;38.10;;;;;;5032365;28;20653;-41
2022/08/13 11:42:03;;;;;;;9.20;7.57;;;28.00;37.50;;;;;;5032416;28;20231;-43
2022/08/13 11:44:29;;;;;;;9.27;8.33;;;28.00;37.70;;;;;;5032334;28;20193;-42
2022/08/13 11:46:55;;;;;;;11.47;8.20;;;28.00;37.50;;;;;;5014411;28;20425;-42
2022/08/13 11:49:21;;;;;;;11.00;9.10;;;28.00;37.50;;;;;;5032273;28;20175;-42
2022/08/13 11:51:48;;;;;;;9.00;7.57;;;28.00;37.60;;;;;;5032952;28;20249;-41
2022/08/13 11:54:14;;;;;;;9.43;8.43;;;28.00;37.80;;;;;;5014518;28;20497;-41
2022/08/13 11:56:40;;;;;;;9.53;8.47;;;28.00;37.70;;;;;;5014370;28;20412;-42
2022/08/13 11:59:06;;;;;;;9.13;8.03;;;27.90;37.30;;;;;;5032230;28;20852;-42
2022/08/13 12:01:32;;;;;;;9.63;8.03;;;27.90;37.30;;;;;;5032139;28;20189;-41
2022/08/13 12:03:58;;;;;;;9.00;7.40;;;27.80;37.50;;;;;;5031928;28;20456;-42
2022/08/13 12:06:24;;;;;;;10.03;8.27;;;27.80;37.50;;;;;;5032763;28;20904;-42
2022/08/13 12:08:50;;;;;;;10.87;7.60;;;27.80;37.60;;;;;;5034812;28;20645;-42
2022/08/13 12:11:16;;;;;;;8.70;6.90;;;27.80;37.70;;;;;;5033931;28;20320;-42
2022/08/13 12:13:42;;;;;;;9.57;7.70;;;27.80;37.90;;;;;;5034910;28;20934;-42
2022/08/13 12:16:08;;;;;;;16.40;8.07;;;27.80;37.80;;;;;;5032587;28;20405;-42
2022/08/13 12:18:34;;;;;;;7.57;6.87;;;27.80;38.00;;;;;;5036063;28;20416;-43
2022/08/13 12:21:00;;;;;;;10.03;6.67;;;27.90;37.90;;;;;;5033349;28;20190;-41
2022/08/13 12:23:26;;;;;;;7.53;6.73;;;27.90;37.90;;;;;;5014267;28;20174;-41
2022/08/13 12:25:52;;;;;;;9.40;7.10;;;27.90;37.80;;;;;;5031678;28;20401;-41
2022/08/13 12:28:23;;;;;;;8.83;7.90;;;28.00;38.40;;;;;;5032175;28;20416;-43
2022/08/13 12:30:55;;;;;;;8.47;6.90;;;28.00;38.40;;;;;;5014310;28;20201;-42
2022/08/13 12:33:21;;;;;;;9.57;8.57;;;28.00;38.20;;;;;;5031839;28;20405;-42
2022/08/13 12:35:47;;;;;;;10.93;8.37;;;28.00;38.10;;;;;;5032394;28;20401;-42
2022/08/13 12:38:15;;;;;;;7.50;6.60;;;28.00;38.20;;;;;;5032786;28;20428;-41
2022/08/13 12:40:43;;;;;;;8.37;7.57;;;27.90;37.80;;;;;;5031666;28;20928;-42
2022/08/13 12:43:08;;;;;;;8.87;7.80;;;27.90;37.80;;;;;;5031706;28;20417;-42
2022/08/13 12:45:36;;;;;;;8.07;7.27;;;27.90;37.80;;;;;;5032375;28;20405;-43
2022/08/13 12:48:07;;;;;;;8.40;6.87;;;27.80;37.80;;;;;;5032754;28;20174;-42
2022/08/13 12:50:34;;;;;;;8.93;7.30;;;27.80;37.80;;;;;;5032829;28;20425;-42
2022/08/13 12:53:00;;;;;;;11.30;8.53;;;27.80;38.00;;;;;;5032487;28;20428;-42
2022/08/13 12:55:26;;;;;;;9.40;7.87;;;27.70;38.30;;;;;;5031884;28;20824;-41
2022/08/13 12:57:52;;;;;;;9.13;8.00;;;27.70;39.00;;;;;;5032073;28;20439;-40
2022/08/13 13:00:19;;;;;;;8.53;7.70;;;27.60;39.40;;;;;;5032459;28;20284;-42
2022/08/13 13:02:45;;;;;;;8.47;7.57;;;27.70;39.20;;;;;;5014357;28;20420;-42
2022/08/13 13:05:10;;;;;;;9.40;8.40;;;27.70;39.00;;;;;;5032036;28;20456;-41
2022/08/13 13:07:36;;;;;;;9.03;7.20;;;27.80;38.90;;;;;;5031720;28;20423;-43
2022/08/13 13:10:03;;;;;;;8.93;7.77;;;27.90;38.80;;;;;;5031326;28;20586;-42
2022/08/13 13:12:29;;;;;;;7.97;7.20;;;27.90;38.60;;;;;;5032083;28;20193;-42
2022/08/13 13:14:55;;;;;;;8.00;6.37;;;28.00;38.90;;;;;;5032634;28;20412;-43